Time;durP1;ratioP1;P1;durP2;ratioP2;P2;SDS_P1;SDS_P2;PMS_P1;PMS_P2;Temp;Humidity;BMP_temperature;BMP_pressure;BME280_temperature;BME280_humidity;BME280_pressure;Samples;Min_cycle;Max_cycle;Signal;HPM_P1;HPM_P2
2021/03/05 00:01:56;;;;;;;;;;;2.90;99.90;;;;;;5083752;28;19924;-73
2021/03/05 00:04:22;;;;;;;;;;;2.80;99.90;;;;;;5094885;28;19931;-73
2021/03/05 00:06:48;;;;;;;;;;;2.80;99.90;;;;;;5094152;28;19924;-73
2021/03/05 00:09:15;;;;;;;;;;;2.90;99.90;;;;;;5094300;28;19924;-73
2021/03/05 00:11:40;;;;;;;;;;;2.80;99.90;;;;;;5094937;28;19924;-73
2021/03/05 00:14:06;;;;;;;;;;;2.80;99.90;;;;;;5094563;28;19936;-73
2021/03/05 00:16:32;;;;;;;;;;;2.80;99.90;;;;;;5094379;28;20364;-73
2021/03/05 00:18:58;;;;;;;;;;;2.70;99.90;;;;;;5094267;28;19924;-74
2021/03/05 00:21:24;;;;;;;;;;;2.70;99.90;;;;;;5087394;28;19978;-73
2021/03/05 00:23:51;;;;;;;;;;;2.70;99.90;;;;;;5074018;28;19947;-73
2021/03/05 00:26:17;;;;;;;;;;;2.70;99.90;;;;;;5074122;28;19986;-73
2021/03/05 00:28:43;;;;;;;;;;;2.70;99.90;;;;;;5074001;28;20379;-73
2021/03/05 00:31:09;;;;;;;;;;;2.70;99.90;;;;;;5074120;28;19938;-73
2021/03/05 00:33:35;;;;;;;;;;;2.70;99.90;;;;;;5073846;28;20371;-75
2021/03/05 00:36:01;;;;;;;;;;;2.70;99.90;;;;;;5073504;28;19935;-73
2021/03/05 00:38:27;;;;;;;;;;;2.70;99.90;;;;;;5073772;28;19928;-73
2021/03/05 00:40:55;;;;;;;;;;;2.70;99.90;;;;;;5073906;28;19931;-73
2021/03/05 00:43:21;;;;;;;;;;;2.60;99.90;;;;;;5073996;28;20066;-73
2021/03/05 00:45:47;;;;;;;;;;;2.50;99.90;;;;;;5073349;28;19929;-73
2021/03/05 00:48:13;;;;;;;;;;;2.50;99.90;;;;;;5073516;28;20389;-74
2021/03/05 00:50:39;;;;;;;;;;;2.50;99.90;;;;;;5088935;28;19947;-74
2021/03/05 00:53:05;;;;;;;;;;;2.50;99.90;;;;;;5093804;28;20379;-74
2021/03/05 00:55:31;;;;;;;;;;;2.50;99.90;;;;;;5079096;28;19924;-73
2021/03/05 00:57:58;;;;;;;;;;;2.50;99.90;;;;;;5073426;28;19936;-74
2021/03/05 01:00:25;;;;;;;;;;;2.40;99.90;;;;;;5073465;28;19928;-74
2021/03/05 01:02:51;;;;;;;;;;;2.40;99.90;;;;;;5073572;28;20368;-74
2021/03/05 01:05:17;;;;;;;;;;;2.40;99.90;;;;;;5073439;28;19950;-73
2021/03/05 01:07:43;;;;;;;;;;;2.40;99.90;;;;;;5072744;28;19928;-74
2021/03/05 01:10:10;;;;;;;;;;;2.30;99.90;;;;;;5073559;28;20012;-73
2021/03/05 01:12:36;;;;;;;;;;;2.40;99.90;;;;;;5073363;28;19946;-74
2021/03/05 01:15:03;;;;;;;;;;;2.30;99.90;;;;;;5073132;28;19931;-74
2021/03/05 01:17:29;;;;;;;;;;;2.40;99.90;;;;;;5072780;28;19931;-73
2021/03/05 01:19:55;;;;;;;;;;;2.30;99.90;;;;;;5073140;28;20291;-73
2021/03/05 01:22:23;;;;;;;;;;;2.20;99.90;;;;;;5087951;28;19925;-73
2021/03/05 01:24:49;;;;;;;;;;;2.20;99.90;;;;;;5092700;28;19970;-73
2021/03/05 01:27:18;;;;;;;;;;;2.10;99.90;;;;;;5092914;28;19928;-74
2021/03/05 01:29:52;;;;;;;;;;;2.10;99.90;;;;;;5093266;28;20585;-73
2021/03/05 01:32:19;;;;;;;;;;;2.00;99.90;;;;;;5093334;28;19924;-74
2021/03/05 01:34:45;;;;;;;;;;;1.90;99.90;;;;;;5093177;28;19935;-73
2021/03/05 01:37:11;;;;;;;;;;;1.90;99.90;;;;;;5092621;28;19928;-74
2021/03/05 01:39:37;;;;;;;;;;;1.70;99.90;;;;;;5092699;28;19978;-74
2021/03/05 01:42:03;;;;;;;;;;;1.60;99.90;;;;;;5092939;28;19935;-73
2021/03/05 01:44:30;;;;;;;;;;;1.50;99.90;;;;;;5086012;28;21305;-73
2021/03/05 01:46:56;;;;;;;;;;;1.50;99.90;;;;;;5072580;28;19931;-73
2021/03/05 01:49:23;;;;;;;;;;;1.40;99.90;;;;;;5072644;28;20138;-73
2021/03/05 01:51:49;;;;;;;;;;;1.30;99.90;;;;;;5072883;28;19931;-73
2021/03/05 01:54:15;;;;;;;;;;;1.30;99.90;;;;;;5072392;28;19924;-73
2021/03/05 01:56:44;;;;;;;;;;;1.20;99.90;;;;;;5072465;28;20392;-73
2021/03/05 01:59:12;;;;;;;;;;;1.10;99.90;;;;;;5072586;28;19925;-73
2021/03/05 02:01:38;;;;;;;;;;;1.00;99.90;;;;;;5072983;28;19954;-73
2021/03/05 02:04:08;;;;;;;;;;;1.00;99.90;;;;;;5075298;28;20444;-74
2021/03/05 02:06:35;;;;;;;;;;;0.90;99.90;;;;;;5092752;28;19946;-72
2021/03/05 02:09:01;;;;;;;;;;;0.80;99.90;;;;;;5092359;28;20279;-73
2021/03/05 02:11:27;;;;;;;;;;;0.70;99.90;;;;;;5092881;28;19924;-74
2021/03/05 02:13:55;;;;;;;;;;;0.60;99.90;;;;;;5092717;28;20299;-73
2021/03/05 02:16:26;;;;;;;;;;;0.60;99.90;;;;;;5092259;28;19932;-73
2021/03/05 02:18:55;;;;;;;;;;;0.50;99.90;;;;;;5091667;28;19927;-73
2021/03/05 02:21:51;;;;;;;;;;;0.40;99.90;;;;;;5092536;28;19924;-73
2021/03/05 02:24:37;;;;;;;;;;;0.20;99.90;;;;;;5092810;28;20288;-73
2021/03/05 02:27:21;;;;;;;;;;;0.20;99.90;;;;;;5092586;28;19932;-73
2021/03/05 02:30:02;;;;;;;;;;;0.10;99.90;;;;;;5092563;28;20346;-73
2021/03/05 02:32:33;;;;;;;;;;;0.00;99.90;;;;;;5092644;28;19924;-73
2021/03/05 02:34:59;;;;;;;;;;;-0.10;99.90;;;;;;5092186;28;19931;-73
2021/03/05 02:37:26;;;;;;;;;;;-0.10;99.90;;;;;;5095694;28;19931;-73
2021/03/05 02:39:55;;;;;;;;;;;-0.20;99.90;;;;;;5096259;28;20429;-73
2021/03/05 02:42:25;;;;;;;;;;;-0.30;99.90;;;;;;5096301;28;19924;-73
2021/03/05 02:44:55;;;;;;;;;;;-0.30;99.90;;;;;;5096227;28;19928;-75
2021/03/05 02:47:24;;;;;;;;;;;-0.40;99.90;;;;;;5079722;28;19969;-75
2021/03/05 02:49:52;;;;;;;;;;;-0.50;99.90;;;;;;5075848;28;19962;-74
2021/03/05 02:52:19;;;;;;;;;;;-0.50;99.90;;;;;;5076178;28;19928;-74
2021/03/05 02:54:48;;;;;;;;;;;-0.50;99.90;;;;;;5080343;28;19924;-74
2021/03/05 02:57:16;;;;;;;;;;;-0.50;99.90;;;;;;5094861;28;19931;-73
2021/03/05 02:59:43;;;;;;;;;;;-0.60;99.90;;;;;;5096192;28;19924;-72
2021/03/05 03:02:11;;;;;;;;;;;-0.60;99.90;;;;;;5095908;28;19932;-74
2021/03/05 03:04:58;;;;;;;;;;;-0.60;99.90;;;;;;5095913;28;20287;-74
2021/03/05 03:07:25;;;;;;;;;;;-0.70;99.90;;;;;;5087851;28;19924;-73
2021/03/05 03:09:51;;;;;;;;;;;-0.60;99.90;;;;;;5075428;28;19924;-73
2021/03/05 03:12:18;;;;;;;;;;;-0.70;99.90;;;;;;5075633;28;19925;-73
2021/03/05 03:14:46;;;;;;;;;;;-0.70;99.90;;;;;;5075487;28;19931;-73
2021/03/05 03:17:13;;;;;;;;;;;-0.80;99.90;;;;;;5076108;28;19928;-73
2021/03/05 03:19:39;;;;;;;;;;;-0.90;99.90;;;;;;5089288;28;19975;-73
2021/03/05 03:22:06;;;;;;;;;;;-0.90;99.90;;;;;;5093705;28;19924;-73
2021/03/05 03:24:33;;;;;;;;;;;-1.00;99.90;;;;;;5075562;28;19999;-73
2021/03/05 03:26:59;;;;;;;;;;;-0.80;99.90;;;;;;5074770;28;19929;-73
2021/03/05 03:29:25;;;;;;;;;;;-0.90;99.90;;;;;;5075345;28;19928;-73
2021/03/05 03:31:51;;;;;;;;;;;-0.90;99.90;;;;;;5075308;28;19925;-73
2021/03/05 03:34:18;;;;;;;;;;;-0.90;99.90;;;;;;5075428;28;19925;-73
2021/03/05 03:36:45;;;;;;;;;;;-1.00;99.90;;;;;;5074859;28;19931;-74
2021/03/05 03:39:11;;;;;;;;;;;-1.00;99.90;;;;;;5074915;28;19978;-73
2021/03/05 03:41:38;;;;;;;;;;;-1.10;99.90;;;;;;5083192;28;19928;-73
2021/03/05 03:44:05;;;;;;;;;;;-1.10;99.90;;;;;;5095247;28;19931;-74
2021/03/05 03:46:31;;;;;;;;;;;-1.10;99.90;;;;;;5085775;28;19925;-73
2021/03/05 03:49:01;;;;;;;;;;;-1.20;99.90;;;;;;5074012;28;20287;-73
2021/03/05 03:51:28;;;;;;;;;;;-1.20;99.90;;;;;;5074861;28;19974;-74
2021/03/05 03:53:55;;;;;;;;;;;-1.30;99.90;;;;;;5074754;28;19978;-74
2021/03/05 03:56:22;;;;;;;;;;;-1.30;99.90;;;;;;5074617;28;19925;-74
2021/03/05 03:58:50;;;;;;;;;;;-1.30;99.90;;;;;;5074569;28;19925;-74
2021/03/05 04:01:16;;;;;;;;;;;-1.40;99.90;;;;;;5074954;28;19931;-73
2021/03/05 04:03:44;;;;;;;;;;;-1.40;99.90;;;;;;5074717;28;19932;-73
2021/03/05 04:06:11;;;;;;;;;;;-1.50;99.90;;;;;;5074333;28;19924;-73
2021/03/05 04:08:39;;;;;;;;;;;-1.60;99.90;;;;;;5094401;28;20278;-74
2021/03/05 04:11:06;;;;;;;;;;;-1.60;99.90;;;;;;5094644;28;19928;-73
2021/03/05 04:13:32;;;;;;;;;;;-1.70;99.90;;;;;;5075787;28;20391;-73
2021/03/05 04:15:59;;;;;;;;;;;-1.70;99.90;;;;;;5074236;28;19929;-74
2021/03/05 04:18:31;;;;;;;;;;;-1.80;99.90;;;;;;5074384;28;19924;-73
2021/03/05 04:20:58;;;;;;;;;;;-1.80;99.90;;;;;;5074536;28;19932;-73
2021/03/05 04:23:24;;;;;;;;;;;-1.90;99.90;;;;;;5074392;28;19951;-73
2021/03/05 04:25:50;;;;;;;;;;;-1.90;99.90;;;;;;5073910;28;19931;-73
2021/03/05 04:28:16;;;;;;;;;;;-1.90;99.90;;;;;;5074104;28;19924;-73
2021/03/05 04:30:42;;;;;;;;;;;-2.00;99.90;;;;;;5074043;28;20433;-72
2021/03/05 04:33:09;;;;;;;;;;;-2.10;99.90;;;;;;5074186;28;19924;-74
2021/03/05 04:35:35;;;;;;;;;;;-2.20;99.90;;;;;;5073698;28;20360;-73
2021/03/05 04:38:01;;;;;;;;;;;-2.20;99.90;;;;;;5073487;28;19924;-72
2021/03/05 04:40:27;;;;;;;;;;;-2.20;99.90;;;;;;5074271;28;19924;-73
2021/03/05 04:42:53;;;;;;;;;;;-2.30;99.90;;;;;;5074056;28;20414;-72
2021/03/05 04:45:19;;;;;;;;;;;-2.20;99.90;;;;;;5074156;28;19977;-72
2021/03/05 04:47:45;;;;;;;;;;;-2.30;99.90;;;;;;5073233;28;20384;-72
2021/03/05 04:50:13;;;;;;;;;;;-2.30;99.90;;;;;;5073453;28;19931;-73
2021/03/05 04:52:39;;;;;;;;;;;-2.20;99.90;;;;;;5073731;28;19986;-73
2021/03/05 04:55:06;;;;;;;;;;;-2.20;99.90;;;;;;5073470;28;19978;-72
2021/03/05 04:57:32;;;;;;;;;;;-2.20;99.90;;;;;;5073136;28;19932;-72
2021/03/05 04:59:58;;;;;;;;;;;-2.20;99.90;;;;;;5072580;28;19931;-72
2021/03/05 05:02:24;;;;;;;;;;;-2.10;99.90;;;;;;5073443;28;19924;-72
2021/03/05 05:04:50;;;;;;;;;;;-2.10;99.90;;;;;;5073355;28;19929;-72
2021/03/05 05:07:17;;;;;;;;;;;-2.10;99.90;;;;;;5073184;28;19947;-73
2021/03/05 05:09:43;;;;;;;;;;;-2.10;99.90;;;;;;5073190;28;20079;-72
2021/03/05 05:12:09;;;;;;;;;;;-2.00;99.90;;;;;;5073294;28;19978;-72
2021/03/05 05:14:35;;;;;;;;;;;-1.90;99.90;;;;;;5073503;28;19924;-72
2021/03/05 05:17:02;;;;;;;;;;;-1.90;99.90;;;;;;5072888;28;19933;-72
2021/03/05 05:19:28;;;;;;;;;;;-2.00;99.90;;;;;;5073054;28;19978;-72
2021/03/05 05:21:54;;;;;;;;;;;-2.00;99.90;;;;;;5072867;28;19928;-73
2021/03/05 05:24:21;;;;;;;;;;;-2.10;99.90;;;;;;5073279;28;19931;-73
2021/03/05 05:26:47;;;;;;;;;;;-2.00;99.90;;;;;;5072987;28;20252;-73
2021/03/05 05:29:13;;;;;;;;;;;-2.10;99.90;;;;;;5091053;28;19924;-74
2021/03/05 05:31:39;;;;;;;;;;;-2.10;99.90;;;;;;5092823;28;19992;-74
2021/03/05 05:34:05;;;;;;;;;;;-2.20;99.90;;;;;;5092183;28;19930;-71
2021/03/05 05:36:33;;;;;;;;;;;-2.20;99.90;;;;;;5085528;28;19975;-78
2021/03/05 05:38:59;;;;;;;;;;;-2.20;99.90;;;;;;5072563;28;19925;-77
2021/03/05 05:41:26;;;;;;;;;;;-2.20;99.90;;;;;;5073239;28;20011;-77
2021/03/05 05:46:34;;;;;;;;;;;-2.20;99.90;;;;;;5091867;28;19930;-74
2021/03/05 05:49:02;;;;;;;;;;;-2.30;99.90;;;;;;5092609;28;19931;-75
2021/03/05 05:51:29;;;;;;;;;;;-2.30;99.90;;;;;;5073737;28;19931;-75
2021/03/05 05:53:58;;;;;;;;;;;-2.30;99.90;;;;;;5072734;28;19925;-75
2021/03/05 05:56:24;;;;;;;;;;;-2.10;99.90;;;;;;5072066;28;19934;-75
2021/03/05 05:58:52;;;;;;;;;;;-1.90;99.90;;;;;;5072324;28;19925;-73
2021/03/05 06:01:18;;;;;;;;;;;-1.80;99.90;;;;;;5072767;28;19951;-74
2021/03/05 06:03:44;;;;;;;;;;;-1.80;99.90;;;;;;5074208;28;19931;-73
2021/03/05 06:06:11;;;;;;;;;;;-1.60;99.90;;;;;;5093646;28;19977;-78
2021/03/05 06:08:38;;;;;;;;;;;-1.50;99.90;;;;;;5095888;28;19928;-75
2021/03/05 06:11:04;;;;;;;;;;;-1.20;99.90;;;;;;5094044;28;19924;-75
2021/03/05 06:13:30;;;;;;;;;;;-1.00;99.90;;;;;;5096925;28;20326;-76
2021/03/05 06:16:11;;;;;;;;;;;-0.20;99.90;;;;;;5096913;28;19924;-77
2021/03/05 06:18:38;;;;;;;;;;;0.40;99.90;;;;;;5095610;28;20038;-78
2021/03/05 06:21:04;;;;;;;;;;;1.00;99.90;;;;;;5098258;28;19928;-72
2021/03/05 06:23:34;;;;;;;;;;;1.60;99.90;;;;;;5098228;28;19924;-79
2021/03/05 06:26:00;;;;;;;;;;;1.60;99.90;;;;;;5098325;28;19931;-74
2021/03/05 06:28:26;;;;;;;;;;;3.30;99.90;;;;;;5097024;28;20007;-75
2021/03/05 06:30:53;;;;;;;;;;;4.30;99.90;;;;;;5096582;28;19928;-73
2021/03/05 06:33:23;;;;;;;;;;;5.20;99.90;;;;;;5096337;28;20360;-73
2021/03/05 06:35:50;;;;;;;;;;;6.10;99.90;;;;;;5076225;28;20023;-74
2021/03/05 06:38:34;;;;;;;;;;;6.80;99.90;;;;;;5075834;28;19925;-78
2021/03/05 06:41:13;;;;;;;;;;;7.40;99.90;;;;;;5076522;28;20023;-76
2021/03/05 06:43:43;;;;;;;;;;;8.10;99.90;;;;;;5076153;28;19924;-76
2021/03/05 06:46:25;;;;;;;;;;;8.60;99.90;;;;;;5075705;28;19931;-72
2021/03/05 06:48:51;;;;;;;;;;;9.10;99.90;;;;;;5075769;28;20402;-76
2021/03/05 06:51:18;;;;;;;;;;;9.70;96.10;;;;;;5076182;28;19925;-77
2021/03/05 06:53:44;;;;;;;;;;;10.20;94.30;;;;;;5078864;28;20391;-78
2021/03/05 06:56:23;;;;;;;;;;;10.40;93.40;;;;;;5076380;28;19924;-74
2021/03/05 06:58:57;;;;;;;;;;;10.90;90.80;;;;;;5075030;28;19924;-76
2021/03/05 07:01:23;;;;;;;;;;;11.30;88.00;;;;;;5075833;28;19970;-74
2021/03/05 07:04:03;;;;;;;;;;;11.80;85.30;;;;;;5075551;28;19929;-73
2021/03/05 07:06:29;;;;;;;;;;;12.10;81.20;;;;;;5093157;28;19939;-74
2021/03/05 07:08:55;;;;;;;;;;;12.50;79.20;;;;;;5084057;28;19925;-74
2021/03/05 07:11:31;;;;;;;;;;;12.60;77.70;;;;;;5075491;28;20423;-73
2021/03/05 07:13:57;;;;;;;;;;;13.00;75.80;;;;;;5075641;28;19952;-73
2021/03/05 07:16:23;;;;;;;;;;;13.30;73.50;;;;;;5075401;28;20368;-76
2021/03/05 07:18:49;;;;;;;;;;;13.80;69.70;;;;;;5075186;28;19931;-75
2021/03/05 07:21:16;;;;;;;;;;;13.80;68.70;;;;;;5073761;28;19924;-73
2021/03/05 07:23:44;;;;;;;;;;;13.90;67.80;;;;;;5074295;28;19978;-77
2021/03/05 07:26:10;;;;;;;;;;;14.10;66.50;;;;;;5076196;28;19928;-76
2021/03/05 07:28:38;;;;;;;;;;;14.10;65.90;;;;;;5075221;28;19924;-77
2021/03/05 07:31:04;;;;;;;;;;;14.30;65.00;;;;;;5075599;28;20391;-77
2021/03/05 07:33:32;;;;;;;;;;;14.70;64.20;;;;;;5084087;28;19935;-76
2021/03/05 07:35:59;;;;;;;;;;;15.10;61.90;;;;;;5096159;28;19924;-74
2021/03/05 07:38:28;;;;;;;;;;;15.50;59.40;;;;;;5095188;28;19924;-73
2021/03/05 07:40:58;;;;;;;;;;;15.80;59.00;;;;;;5095202;28;19928;-74
2021/03/05 07:43:25;;;;;;;;;;;15.80;57.70;;;;;;5095397;28;20015;-75
2021/03/05 07:45:51;;;;;;;;;;;16.00;57.20;;;;;;5094980;28;19924;-73
2021/03/05 07:48:18;;;;;;;;;;;16.20;56.70;;;;;;5086282;28;19924;-72
2021/03/05 07:50:44;;;;;;;;;;;16.40;56.30;;;;;;5074846;28;19934;-73
2021/03/05 07:53:10;;;;;;;;;;;16.80;54.90;;;;;;5074916;28;19931;-73
2021/03/05 07:55:36;;;;;;;;;;;17.00;53.80;;;;;;5074554;28;20524;-72
2021/03/05 07:58:03;;;;;;;;;;;17.10;53.50;;;;;;5074461;28;19925;-73
2021/03/05 08:03:45;;;;;;;;;;;18.00;52.30;;;;;;5086928;28;19928;-75
2021/03/05 08:06:26;;;;;;;;;;;18.60;50.20;;;;;;5094499;28;19924;-71
2021/03/05 08:09:10;;;;;;;;;;;18.50;50.10;;;;;;5094679;28;19928;-77
2021/03/05 08:11:37;;;;;;;;;;;18.50;49.80;;;;;;5095773;28;19931;-77
2021/03/05 08:14:24;;;;;;;;;;;18.90;48.60;;;;;;5096029;28;20580;-77
2021/03/05 08:16:51;;;;;;;;;;;19.10;48.30;;;;;;5095531;28;19931;-74
2021/03/05 08:19:45;;;;;;;;;;;19.30;47.30;;;;;;5095243;28;19931;-76
2021/03/05 08:22:11;;;;;;;;;;;19.50;45.70;;;;;;5095538;28;19931;-76
2021/03/05 08:24:39;;;;;;;;;;;19.50;46.00;;;;;;5094432;28;19928;-74
2021/03/05 08:27:07;;;;;;;;;;;19.70;46.30;;;;;;5094259;28;19931;-77
2021/03/05 08:29:54;;;;;;;;;;;20.10;44.90;;;;;;5094354;28;19935;-74
2021/03/05 08:32:41;;;;;;;;;;;20.10;44.90;;;;;;5094096;28;19924;-75
2021/03/05 08:35:08;;;;;;;;;;;20.20;43.80;;;;;;5063044;28;19928;-71
2021/03/05 08:37:40;;;;;;;;;;;20.20;44.10;;;;;;5074995;28;19928;-80
2021/03/05 08:40:29;;;;;;;;;;;20.40;43.10;;;;;;5077948;28;19924;-81
2021/03/05 08:42:57;;;;;;;;;;;20.40;43.10;;;;;;5076751;28;19928;-78
2021/03/05 08:45:26;;;;;;;;;;;20.60;42.80;;;;;;5074008;28;19924;-78
2021/03/05 08:47:54;;;;;;;;;;;21.10;42.10;;;;;;5074558;28;20010;-77
2021/03/05 08:50:21;;;;;;;;;;;21.20;41.70;;;;;;5073400;28;19925;-74
2021/03/05 08:52:48;;;;;;;;;;;21.40;41.30;;;;;;5078204;28;19924;-78
2021/03/05 08:55:15;;;;;;;;;;;21.30;41.20;;;;;;5076000;28;20303;-78
2021/03/05 08:57:42;;;;;;;;;;;21.30;41.20;;;;;;5072525;28;20457;-74
2021/03/05 09:00:10;;;;;;;;;;;21.30;41.30;;;;;;5074712;28;19981;-78
2021/03/05 09:02:36;;;;;;;;;;;21.30;41.10;;;;;;5079641;28;19931;-72
2021/03/05 09:05:03;;;;;;;;;;;21.60;40.20;;;;;;5093934;28;19936;-72
2021/03/05 09:07:29;;;;;;;;;;;21.30;40.00;;;;;;5079668;28;19924;-74
2021/03/05 09:09:56;;;;;;;;;;;21.10;40.30;;;;;;5086586;28;20498;-76
2021/03/05 09:12:22;;;;;;;;;;;21.10;40.70;;;;;;5093632;28;19924;-74
2021/03/05 09:14:57;;;;;;;;;;;21.20;40.90;;;;;;5092729;28;19931;-74
2021/03/05 09:17:23;;;;;;;;;;;21.00;40.90;;;;;;5072998;28;19924;-73
2021/03/05 09:19:49;;;;;;;;;;;20.50;41.50;;;;;;5073409;28;19936;-75
2021/03/05 09:22:17;;;;;;;;;;;18.80;43.80;;;;;;5074728;28;19928;-81
2021/03/05 09:24:50;;;;;;;;;;;17.80;46.90;;;;;;5077687;28;19928;-76
2021/03/05 09:27:19;;;;;;;;;;;17.70;47.60;;;;;;5073507;28;19924;-74
2021/03/05 09:29:45;;;;;;;;;;;17.10;48.70;;;;;;5091338;28;19924;-74
2021/03/05 09:32:11;;;;;;;;;;;16.20;50.60;;;;;;5081033;28;19924;-73
2021/03/05 09:34:47;;;;;;;;;;;15.00;52.50;;;;;;5072996;28;19924;-74
2021/03/05 09:37:15;;;;;;;;;;;14.00;55.60;;;;;;5073147;28;20337;-76
2021/03/05 09:39:41;;;;;;;;;;;13.10;58.20;;;;;;5090468;28;19924;-74
2021/03/05 09:42:07;;;;;;;;;;;11.90;60.70;;;;;;5080890;28;19929;-78
2021/03/05 09:44:40;;;;;;;;;;;12.10;63.30;;;;;;5076023;28;19989;-77
2021/03/05 09:47:06;;;;;;;;;;;13.70;60.00;;;;;;5073422;28;19924;-77
2021/03/05 09:49:32;;;;;;;;;;;15.10;56.30;;;;;;5073524;28;19928;-77
2021/03/05 09:51:58;;;;;;;;;;;15.50;54.60;;;;;;5073014;28;19951;-73
2021/03/05 09:54:34;;;;;;;;;;;14.60;55.70;;;;;;5072652;28;19935;-72
2021/03/05 09:57:00;;;;;;;;;;;13.90;57.90;;;;;;5086467;28;19930;-79
2021/03/05 09:59:39;;;;;;;;;;;14.20;58.50;;;;;;5096366;28;19924;-77
2021/03/05 10:02:05;;;;;;;;;;;15.00;56.60;;;;;;5093452;28;20275;-76
2021/03/05 10:04:31;;;;;;;;;;;14.70;55.50;;;;;;5092213;28;19924;-77
2021/03/05 10:06:59;;;;;;;;;;;15.30;55.30;;;;;;5093934;28;19970;-76
2021/03/05 10:09:25;;;;;;;;;;;16.40;52.70;;;;;;5092843;28;19935;-76
2021/03/05 10:11:54;;;;;;;;;;;15.40;52.90;;;;;;5093767;28;19928;-77
2021/03/05 10:14:22;;;;;;;;;;;15.70;53.30;;;;;;5091367;28;19924;-74
2021/03/05 10:16:51;;;;;;;;;;;16.80;50.50;;;;;;5072280;28;20379;-76
2021/03/05 10:19:18;;;;;;;;;;;17.00;48.00;;;;;;5083775;28;19924;-75
2021/03/05 10:21:45;;;;;;;;;;;17.40;47.10;;;;;;5072757;28;19928;-74
2021/03/05 10:24:15;;;;;;;;;;;18.10;46.50;;;;;;5072455;28;19928;-73
2021/03/05 10:27:10;;;;;;;;;;;17.90;46.10;;;;;;5074952;28;19925;-78
2021/03/05 10:29:36;;;;;;;;;;;17.10;47.20;;;;;;5078019;28;20265;-80
2021/03/05 10:32:03;;;;;;;;;;;16.80;47.30;;;;;;5076839;28;20117;-78
2021/03/05 10:34:30;;;;;;;;;;;15.70;48.30;;;;;;5073333;28;19932;-74
2021/03/05 10:36:57;;;;;;;;;;;15.50;49.80;;;;;;5072349;28;19924;-75
2021/03/05 10:39:23;;;;;;;;;;;16.60;48.20;;;;;;5072251;28;20371;-73
2021/03/05 10:41:50;;;;;;;;;;;17.50;46.20;;;;;;5072137;28;19924;-72
2021/03/05 10:44:16;;;;;;;;;;;18.40;44.50;;;;;;5071756;28;20015;-70
2021/03/05 10:46:43;;;;;;;;;;;18.50;40.40;;;;;;5073352;28;19928;-73
2021/03/05 10:49:09;;;;;;;;;;;17.50;41.10;;;;;;5072874;28;19929;-73
2021/03/05 10:51:35;;;;;;;;;;;17.10;43.40;;;;;;5071494;28;19991;-73
2021/03/05 10:54:01;;;;;;;;;;;16.50;43.30;;;;;;5071772;28;19931;-73
2021/03/05 10:56:27;;;;;;;;;;;16.70;43.90;;;;;;5071377;28;19929;-73
2021/03/05 10:58:53;;;;;;;;;;;17.60;42.00;;;;;;5086536;28;19932;-73
2021/03/05 11:01:19;;;;;;;;;;;18.30;39.40;;;;;;5095570;28;19969;-73
2021/03/05 11:03:49;;;;;;;;;;;18.60;39.80;;;;;;5076504;28;19963;-74
2021/03/05 11:06:16;;;;;;;;;;;18.90;39.10;;;;;;5075343;28;20371;-73
2021/03/05 11:08:41;;;;;;;;;;;19.00;38.50;;;;;;5075155;28;19928;-73
2021/03/05 11:11:07;;;;;;;;;;;19.50;38.40;;;;;;5078806;28;19931;-73
2021/03/05 11:13:33;;;;;;;;;;;19.90;37.50;;;;;;5095855;28;19946;-73
2021/03/05 11:15:59;;;;;;;;;;;20.20;36.90;;;;;;5095206;28;20310;-73
2021/03/05 11:18:25;;;;;;;;;;;19.90;36.30;;;;;;5099049;28;19924;-73
2021/03/05 11:20:52;;;;;;;;;;;19.10;37.40;;;;;;5095794;28;19924;-73
2021/03/05 11:23:18;;;;;;;;;;;18.80;39.10;;;;;;5094544;28;19925;-73
2021/03/05 11:25:45;;;;;;;;;;;19.40;39.00;;;;;;5075015;28;19928;-72
2021/03/05 11:28:13;;;;;;;;;;;20.00;37.40;;;;;;5074980;28;19928;-73
2021/03/05 11:30:39;;;;;;;;;;;20.30;36.50;;;;;;5075155;28;19931;-72
2021/03/05 11:33:05;;;;;;;;;;;19.10;37.30;;;;;;5074818;28;20305;-73
2021/03/05 11:35:32;;;;;;;;;;;18.10;38.20;;;;;;5074372;28;19929;-73
2021/03/05 11:37:58;;;;;;;;;;;18.20;38.50;;;;;;5074157;28;19924;-73
2021/03/05 11:40:25;;;;;;;;;;;18.20;38.90;;;;;;5074633;28;19928;-73
2021/03/05 11:42:50;;;;;;;;;;;18.10;39.20;;;;;;5074910;28;19925;-73
2021/03/05 11:45:17;;;;;;;;;;;18.40;39.00;;;;;;5074345;28;19925;-73
2021/03/05 11:47:43;;;;;;;;;;;18.50;38.00;;;;;;5074192;28;20038;-73
2021/03/05 11:50:10;;;;;;;;;;;18.70;38.00;;;;;;5074462;28;19931;-75
2021/03/05 11:52:36;;;;;;;;;;;18.70;38.40;;;;;;5086521;28;19931;-79
2021/03/05 11:55:04;;;;;;;;;;;18.90;38.60;;;;;;5098477;28;19924;-78
2021/03/05 11:57:30;;;;;;;;;;;19.40;37.60;;;;;;5094327;28;19977;-75
2021/03/05 11:59:56;;;;;;;;;;;19.40;37.10;;;;;;5095087;28;19924;-75
2021/03/05 12:02:22;;;;;;;;;;;19.50;37.40;;;;;;5095671;28;20391;-76
2021/03/05 12:04:48;;;;;;;;;;;19.00;37.50;;;;;;5097713;28;19946;-77
2021/03/05 12:07:14;;;;;;;;;;;17.90;39.30;;;;;;5097673;28;19928;-78
2021/03/05 12:09:40;;;;;;;;;;;17.60;39.50;;;;;;5096039;28;19931;-75
2021/03/05 12:12:08;;;;;;;;;;;16.80;40.50;;;;;;5096162;28;20036;-75
2021/03/05 12:14:34;;;;;;;;;;;16.30;41.60;;;;;;5097006;28;19924;-78
2021/03/05 12:17:00;;;;;;;;;;;16.10;42.70;;;;;;5096256;28;19924;-75
2021/03/05 12:19:26;;;;;;;;;;;15.90;43.50;;;;;;5094554;28;20295;-75
2021/03/05 12:21:52;;;;;;;;;;;16.60;43.70;;;;;;5094420;28;19924;-77
2021/03/05 12:24:18;;;;;;;;;;;17.80;41.90;;;;;;5097453;28;19935;-77
2021/03/05 12:26:44;;;;;;;;;;;18.90;39.40;;;;;;5098703;28;19978;-75
2021/03/05 12:29:11;;;;;;;;;;;19.40;37.80;;;;;;5089626;28;19924;-77
2021/03/05 12:31:37;;;;;;;;;;;19.70;36.70;;;;;;5075058;28;20420;-75
2021/03/05 12:34:04;;;;;;;;;;;20.20;37.40;;;;;;5073995;28;19928;-74
2021/03/05 12:36:30;;;;;;;;;;;20.50;35.30;;;;;;5073494;28;19932;-75
2021/03/05 12:38:56;;;;;;;;;;;20.30;33.80;;;;;;5073310;28;19932;-74
2021/03/05 12:41:22;;;;;;;;;;;20.20;34.20;;;;;;5073411;28;19981;-74
2021/03/05 12:43:48;;;;;;;;;;;20.10;33.90;;;;;;5074038;28;19994;-73
2021/03/05 12:46:15;;;;;;;;;;;19.80;34.10;;;;;;5073604;28;20384;-73
2021/03/05 12:48:41;;;;;;;;;;;19.10;35.30;;;;;;5074394;28;19925;-77
2021/03/05 12:51:07;;;;;;;;;;;19.20;36.60;;;;;;5073722;28;19924;-75
2021/03/05 12:53:33;;;;;;;;;;;19.40;35.30;;;;;;5074968;28;20433;-72
2021/03/05 12:55:59;;;;;;;;;;;19.40;35.40;;;;;;5073543;28;19931;-72
2021/03/05 12:58:24;;;;;;;;;;;19.50;35.10;;;;;;5085869;28;20015;-78
2021/03/05 13:00:51;;;;;;;;;;;19.90;34.50;;;;;;5094849;28;19924;-77
2021/03/05 13:03:18;;;;;;;;;;;20.40;35.00;;;;;;5094036;28;20464;-76
2021/03/05 13:05:44;;;;;;;;;;;20.60;34.50;;;;;;5094222;28;19951;-77
2021/03/05 13:08:11;;;;;;;;;;;20.10;32.70;;;;;;5094396;28;20347;-77
2021/03/05 13:10:37;;;;;;;;;;;19.20;32.20;;;;;;5078273;28;19925;-73
2021/03/05 13:13:03;;;;;;;;;;;19.20;33.10;;;;;;5086502;28;19924;-71
2021/03/05 13:15:29;;;;;;;;;;;19.20;33.30;;;;;;5092892;28;20276;-70
2021/03/05 13:17:55;;;;;;;;;;;19.00;33.50;;;;;;5088554;28;19954;-77
2021/03/05 13:20:22;;;;;;;;;;;19.00;33.70;;;;;;5072987;28;19925;-77
2021/03/05 13:22:48;;;;;;;;;;;19.40;33.60;;;;;;5073722;28;20334;-77
2021/03/05 13:25:18;;;;;;;;;;;20.00;33.50;;;;;;5073202;28;19928;-73
2021/03/05 13:27:44;;;;;;;;;;;19.20;32.90;;;;;;5072891;28;19979;-74
2021/03/05 13:30:11;;;;;;;;;;;18.30;34.50;;;;;;5073422;28;19985;-73
2021/03/05 13:32:37;;;;;;;;;;;18.70;34.80;;;;;;5073124;28;19925;-74
2021/03/05 13:35:04;;;;;;;;;;;19.10;32.80;;;;;;5072961;28;20331;-74
2021/03/05 13:37:31;;;;;;;;;;;19.60;31.90;;;;;;5072473;28;19924;-74
2021/03/05 13:39:57;;;;;;;;;;;20.00;31.80;;;;;;5072745;28;19928;-74
2021/03/05 13:42:23;;;;;;;;;;;20.30;31.30;;;;;;5072511;28;19924;-73
2021/03/05 13:44:50;;;;;;;;;;;20.40;31.10;;;;;;5072970;28;19970;-74
2021/03/05 13:47:16;;;;;;;;;;;20.60;31.20;;;;;;5072203;28;19981;-73
2021/03/05 13:49:42;;;;;;;;;;;20.80;29.50;;;;;;5072800;28;20331;-73
2021/03/05 13:52:08;;;;;;;;;;;20.70;29.80;;;;;;5072334;28;19928;-73
2021/03/05 13:54:34;;;;;;;;;;;21.00;29.70;;;;;;5072643;28;19924;-73
2021/03/05 13:57:00;;;;;;;;;;;20.80;29.20;;;;;;5072317;28;20022;-73
2021/03/05 13:59:26;;;;;;;;;;;20.60;29.00;;;;;;5072300;28;20390;-73
2021/03/05 14:01:52;;;;;;;;;;;20.60;29.50;;;;;;5072092;28;19932;-73
2021/03/05 14:04:18;;;;;;;;;;;21.20;29.60;;;;;;5072309;28;19931;-73
2021/03/05 14:06:44;;;;;;;;;;;21.40;29.10;;;;;;5075293;28;19932;-73
2021/03/05 14:09:10;;;;;;;;;;;21.50;29.80;;;;;;5075552;28;19947;-74
2021/03/05 14:11:37;;;;;;;;;;;21.30;28.80;;;;;;5072278;28;19931;-73
2021/03/05 14:14:03;;;;;;;;;;;20.60;29.30;;;;;;5072549;28;19925;-73
2021/03/05 14:16:29;;;;;;;;;;;19.00;30.50;;;;;;5071811;28;19929;-73
2021/03/05 14:18:55;;;;;;;;;;;17.90;31.90;;;;;;5072114;28;19981;-73
2021/03/05 14:21:21;;;;;;;;;;;16.90;33.00;;;;;;5071889;28;19939;-73
2021/03/05 14:23:47;;;;;;;;;;;15.40;35.20;;;;;;5072266;28;19924;-73
2021/03/05 14:26:13;;;;;;;;;;;14.00;36.30;;;;;;5071954;28;19932;-73
2021/03/05 14:28:40;;;;;;;;;;;12.50;39.10;;;;;;5071844;28;20283;-75